Time;durP1;ratioP1;P1;durP2;ratioP2;P2;SDS_P1;SDS_P2;PMS_P1;PMS_P2;Temp;Humidity;BMP_temperature;BMP_pressure;BME280_temperature;BME280_humidity;BME280_pressure;Samples;Min_cycle;Max_cycle;Signal;HPM_P1;HPM_P2
2022/07/23 00:00:54;;;;;;;4.63;3.70;;;20.20;10.10;;;;;;10475843;28;20215;-80
2022/07/23 00:06:16;;;;;;;4.90;3.65;;;20.20;11.90;;;;;;10462246;28;20207;-80
2022/07/23 00:11:37;;;;;;;4.10;3.55;;;20.20;1.00;;;;;;10461827;28;20297;-80
2022/07/23 00:16:58;;;;;;;4.00;3.35;;;20.20;7.60;;;;;;10475626;28;20191;-81
2022/07/23 00:22:19;;;;;;;5.22;3.50;;;20.10;5.40;;;;;;10475404;28;20498;-80
2022/07/23 00:27:41;;;;;;;4.13;3.50;;;20.10;5.10;;;;;;10492539;28;20245;-79
2022/07/23 00:33:05;;;;;;;3.65;2.83;;;20.10;1.00;;;;;;10489823;28;20226;-79
2022/07/23 00:38:26;;;;;;;5.82;3.88;;;20.00;2.00;;;;;;10492195;28;20196;-80
2022/07/23 00:43:48;;;;;;;5.47;4.72;;;19.90;15.30;;;;;;10467433;28;20279;-81
2022/07/23 00:49:09;;;;;;;6.30;4.10;;;19.70;22.60;;;;;;10468355;28;20356;-79
2022/07/23 00:54:31;;;;;;;6.55;4.70;;;19.60;43.30;;;;;;10468087;28;20227;-79
2022/07/23 00:59:52;;;;;;;5.15;4.43;;;;;;;;;;10482170;28;20184;-79
2022/07/23 01:05:14;;;;;;;7.03;4.68;;;19.50;99.90;;;;;;10481899;28;20218;-79
2022/07/23 01:10:36;;;;;;;6.82;5.03;;;;;;;;;;10470117;28;20240;-77
2022/07/23 01:15:58;;;;;;;9.15;6.05;;;;;;;;;;10467055;28;20219;-79
2022/07/23 01:21:21;;;;;;;9.88;6.10;;;19.40;99.90;;;;;;10483320;28;20430;-79
2022/07/23 01:26:44;;;;;;;5.57;5.05;;;;;;;;;;10466967;28;20222;-79
2022/07/23 01:32:06;;;;;;;7.85;5.80;;;19.30;78.80;;;;;;10483265;28;20223;-79
2022/07/23 01:37:28;;;;;;;8.77;5.75;;;19.20;73.40;;;;;;10497194;28;20218;-80
2022/07/23 01:42:49;;;;;;;7.90;5.78;;;19.20;94.10;;;;;;10480016;28;20234;-80
2022/07/23 01:48:11;;;;;;;9.45;5.60;;;19.20;99.90;;;;;;10466719;28;20192;-83
2022/07/23 01:53:39;;;;;;;7.43;5.57;;;19.30;93.10;;;;;;10466946;28;20235;-80
2022/07/23 01:59:01;;;;;;;5.35;4.85;;;;;;;;;;10479969;28;20192;-79
2022/07/23 02:04:24;;;;;;;7.45;5.55;;;19.20;99.90;;;;;;10465538;28;20279;-79
2022/07/23 02:09:45;;;;;;;5.85;5.30;;;19.10;99.90;;;;;;10465225;28;20387;-78
2022/07/23 02:15:07;;;;;;;6.35;5.50;;;19.10;99.90;;;;;;10478912;28;20513;-79
2022/07/23 02:20:28;;;;;;;6.55;4.90;;;19.20;99.90;;;;;;10482974;28;20202;-79
2022/07/23 02:25:50;;;;;;;6.18;5.30;;;19.10;99.90;;;;;;10478605;28;20455;-78
2022/07/23 02:31:11;;;;;;;6.25;5.10;;;19.10;99.20;;;;;;10464708;28;20253;-78
2022/07/23 02:36:33;;;;;;;6.03;5.40;;;19.00;99.90;;;;;;10492668;28;20203;-79
2022/07/23 02:41:56;;;;;;;8.48;5.72;;;18.90;99.90;;;;;;10463493;28;20382;-78
2022/07/23 02:47:18;;;;;;;6.85;5.13;;;;;;;;;;10480817;28;20199;-79
2022/07/23 02:52:40;;;;;;;9.23;5.32;;;18.90;99.90;;;;;;10463969;28;20230;-79
2022/07/23 02:58:01;;;;;;;6.32;5.32;;;18.90;99.90;;;;;;10477806;28;20188;-79
2022/07/23 03:03:23;;;;;;;6.20;5.28;;;18.80;99.90;;;;;;10476961;28;20202;-83
2022/07/23 03:08:47;;;;;;;6.85;5.55;;;18.80;99.90;;;;;;10479774;28;20278;-79
2022/07/23 03:14:09;;;;;;;10.77;5.68;;;18.70;99.90;;;;;;10464984;28;20281;-79
2022/07/23 03:19:30;;;;;;;8.45;5.20;;;18.70;99.90;;;;;;10477044;28;20199;-79
2022/07/23 03:24:54;;;;;;;8.05;6.03;;;18.60;99.90;;;;;;10474117;28;20286;-79
2022/07/23 03:30:23;;;;;;;8.43;6.40;;;18.70;99.90;;;;;;10491099;28;20187;-80
2022/07/23 03:35:45;;;;;;;8.90;6.32;;;18.70;99.90;;;;;;10476413;28;20416;-81
2022/07/23 03:41:18;;;;;;;7.35;6.45;;;18.70;99.90;;;;;;10461879;28;20194;-80
2022/07/23 03:46:40;;;;;;;9.02;7.15;;;18.70;99.90;;;;;;10476379;28;20187;-80
2022/07/23 03:52:01;;;;;;;6.72;6.03;;;18.60;99.90;;;;;;10490491;28;20573;-80
2022/07/23 03:57:24;;;;;;;7.45;6.18;;;18.60;99.90;;;;;;10463059;28;20198;-80
2022/07/23 04:02:45;;;;;;;8.95;7.07;;;18.70;99.90;;;;;;10476761;28;20220;-79
2022/07/23 04:08:06;;;;;;;8.77;6.13;;;18.70;99.90;;;;;;10476090;28;20192;-78
2022/07/23 04:13:34;;;;;;;6.80;6.10;;;18.80;99.90;;;;;;10478433;28;20243;-79
2022/07/23 04:18:57;;;;;;;8.90;6.60;;;18.80;99.90;;;;;;10469815;28;20211;-79
2022/07/23 04:24:22;;;;;;;10.55;7.93;;;18.90;99.90;;;;;;10488410;28;20202;-81
2022/07/23 04:29:44;;;;;;;9.68;7.45;;;19.00;99.90;;;;;;10497866;28;20192;-79
2022/07/23 04:35:08;;;;;;;8.02;6.32;;;19.10;99.90;;;;;;10469331;28;20424;-79
2022/07/23 04:40:30;;;;;;;9.70;5.43;;;19.30;99.90;;;;;;10483175;28;20188;-79
2022/07/23 04:45:51;;;;;;;6.20;4.38;;;19.40;26.10;;;;;;10482932;28;20195;-79
2022/07/23 04:51:13;;;;;;;7.63;4.25;;;19.40;16.20;;;;;;10496912;28;20263;-80
2022/07/23 04:56:34;;;;;;;6.15;4.30;;;19.40;1.00;;;;;;10482567;28;20220;-83
2022/07/23 05:01:56;;;;;;;5.65;3.90;;;19.40;12.70;;;;;;10484964;28;20434;-84
2022/07/23 05:07:17;;;;;;;6.18;4.53;;;19.50;1.00;;;;;;10468025;28;20249;-82
2022/07/23 05:12:39;;;;;;;5.75;4.47;;;19.60;1.00;;;;;;10467684;28;20239;-82
2022/07/23 05:18:20;;;;;;;7.25;4.13;;;19.80;1.00;;;;;;10482105;28;20250;-79
2022/07/23 05:24:01;;;;;;;7.57;4.40;;;19.80;1.00;;;;;;10483724;28;20212;-81
2022/07/23 05:29:43;;;;;;;6.22;4.15;;;19.80;1.00;;;;;;10450869;28;20250;-80
2022/07/23 05:35:24;;;;;;;6.15;3.47;;;19.80;1.00;;;;;;10454115;28;20262;-82
2022/07/23 05:41:21;;;;;;;5.85;3.55;;;19.90;1.00;;;;;;10480529;28;20222;-80
2022/07/23 05:47:02;;;;;;;7.13;4.10;;;20.10;1.00;;;;;;10469409;28;20210;-79
2022/07/23 05:52:44;;;;;;;7.03;3.92;;;20.20;1.00;;;;;;10480222;28;20283;-82
2022/07/23 05:58:48;;;;;;;4.72;3.78;;;20.30;1.00;;;;;;10481059;28;20212;-80
2022/07/23 06:04:31;;;;;;;5.03;3.70;;;20.40;1.00;;;;;;10479751;28;20545;-80
2022/07/23 06:10:30;;;;;;;7.75;3.53;;;20.70;1.00;;;;;;10479481;28;20238;-81
2022/07/23 06:16:12;;;;;;;8.10;3.95;;;20.90;1.00;;;;;;10480209;28;20269;-79
2022/07/23 06:21:53;;;;;;;8.70;4.38;;;21.10;1.00;;;;;;10483982;28;20242;-79
2022/07/23 06:27:34;;;;;;;9.18;4.55;;;21.40;1.00;;;;;;10520436;28;20272;-80
2022/07/23 06:33:15;;;;;;;9.98;4.32;;;21.40;1.00;;;;;;10531341;28;20235;-79
2022/07/23 06:38:58;;;;;;;7.70;4.57;;;21.70;1.00;;;;;;10477996;28;20219;-78
2022/07/23 06:44:39;;;;;;;6.13;4.55;;;22.00;1.00;;;;;;10487405;28;20242;-82
2022/07/23 06:50:21;;;;;;;6.20;4.35;;;22.70;1.00;;;;;;10479089;28;20207;-80
2022/07/23 06:56:02;;;;;;;9.73;5.15;;;22.80;1.00;;;;;;10489147;28;20227;-81
2022/07/23 07:01:43;;;;;;;7.63;4.90;;;23.50;1.00;;;;;;10477628;28;20204;-81
2022/07/23 07:07:24;;;;;;;6.72;4.43;;;24.90;99.90;;;;;;10478492;28;20210;-81
2022/07/23 07:13:05;;;;;;;5.10;3.95;;;24.90;1.00;;;;;;10476923;28;20235;-80
2022/07/23 07:18:47;;;;;;;7.30;3.83;;;25.70;83.40;;;;;;10477266;28;20415;-80
2022/07/23 07:24:28;;;;;;;4.93;3.92;;;25.40;91.60;;;;;;10477749;28;20227;-83
2022/07/23 07:30:12;;;;;;;10.10;4.82;;;24.90;93.40;;;;;;10477605;28;20214;-80
2022/07/23 07:35:54;;;;;;;5.53;4.07;;;24.60;94.10;;;;;;10477637;28;20254;-80
2022/07/23 07:41:35;;;;;;;4.75;3.88;;;24.20;95.10;;;;;;10465255;28;20225;-81
2022/07/23 07:47:16;;;;;;;5.72;4.30;;;23.90;96.10;;;;;;10477337;28;20200;-80
2022/07/23 07:52:57;;;;;;;5.03;4.35;;;23.60;97.70;;;;;;10472942;28;20407;-81
2022/07/23 07:58:39;;;;;;;5.70;4.35;;;25.00;95.10;;;;;;10484437;28;20196;-80
2022/07/23 08:04:20;;;;;;;4.53;4.10;;;26.00;90.30;;;;;;10484449;28;20444;-80
2022/07/23 08:10:01;;;;;;;6.53;4.28;;;26.30;83.40;;;;;;10483720;28;20231;-81
2022/07/23 08:15:43;;;;;;;6.53;3.90;;;26.00;84.60;;;;;;10483872;28;20501;-80
2022/07/23 08:21:24;;;;;;;7.00;4.50;;;26.60;85.20;;;;;;10484113;28;20200;-81
2022/07/23 08:27:06;;;;;;;4.57;3.67;;;27.30;72.70;;;;;;10526039;28;20230;-80
2022/07/23 08:32:55;;;;;;;5.50;4.03;;;27.30;70.70;;;;;;10523634;28;20495;-80
2022/07/23 08:38:36;;;;;;;5.45;3.90;;;28.00;63.10;;;;;;10484156;28;20210;-84
2022/07/23 08:44:17;;;;;;;4.82;3.63;;;27.70;59.90;;;;;;10482655;28;20208;-82
2022/07/23 08:49:59;;;;;;;7.68;4.28;;;27.00;63.80;;;;;;10471566;28;20271;-83
2022/07/23 08:55:42;;;;;;;9.00;3.90;;;26.40;69.40;;;;;;10471238;28;20254;-79
2022/07/23 09:01:23;;;;;;;11.13;4.60;;;26.50;73.00;;;;;;10440894;28;20212;-80
2022/07/23 09:07:05;;;;;;;4.45;3.70;;;26.90;70.50;;;;;;10476960;28;20491;-80
2022/07/23 09:12:46;;;;;;;5.30;3.92;;;27.20;66.00;;;;;;10481058;28;20228;-80
2022/07/23 09:18:33;;;;;;;9.30;4.55;;;27.20;63.40;;;;;;10482484;28;20210;-83
2022/07/23 09:24:15;;;;;;;7.43;4.50;;;27.10;64.30;;;;;;10481114;28;20215;-80
2022/07/23 09:29:57;;;;;;;7.13;4.63;;;27.00;62.60;;;;;;10481049;28;20227;-80
2022/07/23 09:35:47;;;;;;;8.18;4.70;;;26.90;63.50;;;;;;10480539;28;20227;-80
2022/07/23 09:41:46;;;;;;;7.97;5.22;;;26.30;69.00;;;;;;10480672;28;20257;-81
2022/07/23 09:47:31;;;;;;;8.98;4.68;;;25.70;74.60;;;;;;10480743;28;20214;-80
2022/07/23 09:53:25;;;;;;;7.00;4.90;;;25.20;91.00;;;;;;10481120;28;20239;-79
2022/07/23 09:59:11;;;;;;;7.90;4.65;;;24.70;92.50;;;;;;10480567;28;20258;-79
2022/07/23 10:04:54;;;;;;;6.30;4.35;;;24.60;93.60;;;;;;10490966;28;20204;-80
2022/07/23 10:10:46;;;;;;;5.75;4.38;;;24.40;94.10;;;;;;10490656;28;20257;-80
2022/07/23 10:16:54;;;;;;;11.40;5.00;;;24.40;93.00;;;;;;10480181;28;20314;-79
2022/07/23 10:22:40;;;;;;;6.22;4.60;;;24.30;92.70;;;;;;10490396;28;20253;-83
2022/07/23 10:29:03;;;;;;;5.78;4.18;;;24.40;93.00;;;;;;10520641;28;20207;-81
2022/07/23 10:35:19;;;;;;;6.03;3.95;;;24.30;93.10;;;;;;10489374;28;20258;-80
2022/07/23 10:41:04;;;;;;;6.00;4.93;;;24.30;93.60;;;;;;10422939;28;20584;-80
2022/07/23 10:53:13;;;;;;;6.25;4.53;;;23.90;94.10;;;;;;10433694;28;20259;-80
2022/07/23 10:59:03;;;;;;;14.52;5.47;;;23.50;1.00;;;;;;10422755;28;20276;-79
2022/07/23 11:04:52;;;;;;;9.35;4.85;;;23.40;1.00;;;;;;10420992;28;20247;-80
2022/07/23 11:10:52;;;;;;;9.38;5.40;;;23.20;44.40;;;;;;10402639;28;20263;-79
2022/07/23 11:16:22;;;;;;;4.90;4.40;;;22.90;99.90;;;;;;10455798;28;20239;-82
2022/07/23 11:21:45;;;;;;;6.50;4.82;;;22.70;99.90;;;;;;10480592;28;20257;-79
2022/07/23 11:27:07;;;;;;;11.45;4.97;;;22.40;1.00;;;;;;10518227;28;20424;-79
2022/07/23 11:32:32;;;;;;;8.07;3.88;;;21.70;1.00;;;;;;10516085;28;20202;-80
2022/07/23 11:38:03;;;;;;;5.40;4.15;;;21.30;1.00;;;;;;10474970;28;20246;-78
2022/07/23 11:43:25;;;;;;;5.00;4.55;;;20.90;6.80;;;;;;10476426;28;20253;-78
2022/07/23 11:48:46;;;;;;;8.13;4.47;;;20.70;1.00;;;;;;10478757;28;20218;-79
2022/07/23 11:54:07;;;;;;;6.43;4.78;;;20.80;53.50;;;;;;10478442;28;20234;-81
2022/07/23 11:59:35;;;;;;;5.88;4.82;;;20.80;94.90;;;;;;10495490;28;20207;-79
2022/07/23 12:04:57;;;;;;;6.72;5.25;;;21.10;99.90;;;;;;10462698;28;20204;-80
2022/07/23 12:10:25;;;;;;;5.80;4.63;;;21.60;59.30;;;;;;10466008;28;20302;-82
2022/07/23 12:15:52;;;;;;;4.93;4.30;;;21.90;1.00;;;;;;10462484;28;20540;-84
2022/07/23 12:21:14;;;;;;;6.18;4.55;;;22.50;1.00;;;;;;10478597;28;20238;-82
2022/07/23 12:26:35;;;;;;;5.25;4.13;;;22.80;1.00;;;;;;10476360;28;20184;-83
2022/07/23 12:31:56;;;;;;;5.22;4.03;;;22.80;1.00;;;;;;10492794;28;20271;-83
2022/07/23 12:37:32;;;;;;;5.72;3.97;;;22.90;1.00;;;;;;10494274;28;20223;-81
2022/07/23 12:43:10;;;;;;;4.93;3.92;;;23.20;1.00;;;;;;10486103;28;20230;-80
2022/07/23 12:48:53;;;;;;;6.28;3.50;;;23.80;1.00;;;;;;10499589;28;20230;-83
2022/07/23 12:54:15;;;;;;;6.43;3.92;;;24.00;1.00;;;;;;10485365;28;20231;-82
2022/07/23 12:59:38;;;;;;;5.65;3.78;;;23.60;1.00;;;;;;10468506;28;20200;-82
2022/07/23 13:04:59;;;;;;;5.45;3.72;;;23.90;1.00;;;;;;10467647;28;20195;-81
2022/07/23 13:10:20;;;;;;;3.75;3.45;;;24.10;1.00;;;;;;10482432;28;20219;-80
2022/07/23 13:15:43;;;;;;;3.83;3.40;;;24.00;1.00;;;;;;10481887;28;20223;-83
2022/07/23 13:21:05;;;;;;;9.68;4.07;;;24.40;99.90;;;;;;10481337;28;20192;-80
2022/07/23 13:26:27;;;;;;;6.97;4.50;;;24.40;99.90;;;;;;10482721;28;20196;-83
2022/07/23 13:31:49;;;;;;;5.78;4.03;;;24.40;99.90;;;;;;10482405;28;20566;-83
2022/07/23 13:37:10;;;;;;;5.68;4.30;;;24.10;99.90;;;;;;10481167;28;20223;-80
2022/07/23 13:42:31;;;;;;;5.07;3.90;;;23.90;99.90;;;;;;10480988;28;20196;-82
2022/07/23 13:47:53;;;;;;;4.78;4.10;;;24.20;99.90;;;;;;10479907;28;20191;-80
2022/07/23 13:53:20;;;;;;;6.50;4.68;;;24.20;99.90;;;;;;10480711;28;20212;-84
2022/07/23 13:58:41;;;;;;;5.00;4.10;;;23.90;99.90;;;;;;10466728;28;20298;-81
2022/07/23 14:04:03;;;;;;;5.28;4.70;;;24.00;1.00;;;;;;10479832;28;20501;-82
2022/07/23 14:09:25;;;;;;;4.80;4.32;;;24.30;99.90;;;;;;10438903;28;20384;-82
2022/07/23 14:14:46;;;;;;;5.40;4.70;;;24.30;99.90;;;;;;10454939;28;20542;-83
2022/07/23 14:20:09;;;;;;;5.30;4.38;;;24.40;99.90;;;;;;10444786;28;20483;-83
2022/07/23 14:25:30;;;;;;;5.20;4.50;;;24.40;99.90;;;;;;10510873;28;20220;-82
2022/07/23 14:30:51;;;;;;;5.35;4.70;;;24.40;99.90;;;;;;10520708;28;20194;-82
2022/07/23 14:36:13;;;;;;;6.13;5.05;;;24.20;99.90;;;;;;10482941;28;20227;-82
2022/07/23 14:41:35;;;;;;;6.65;4.88;;;24.20;99.90;;;;;;10481298;28;20199;-84
2022/07/23 14:46:57;;;;;;;6.22;4.93;;;24.20;99.90;;;;;;10494922;28;20200;-83
2022/07/23 14:52:18;;;;;;;5.13;4.63;;;24.40;99.90;;;;;;10481142;28;20389;-80
2022/07/23 14:57:40;;;;;;;5.30;4.68;;;24.40;99.90;;;;;;10481726;28;20219;-80
2022/07/23 15:03:01;;;;;;;4.90;4.40;;;24.20;2.80;;;;;;10478652;28;20271;-81
2022/07/23 15:08:22;;;;;;;4.72;4.25;;;24.10;35.00;;;;;;10477950;28;20202;-82
2022/07/23 15:13:43;;;;;;;4.53;4.13;;;24.00;1.00;;;;;;10479510;28;20265;-82
2022/07/23 15:19:05;;;;;;;5.68;4.35;;;23.90;1.00;;;;;;10479863;28;20487;-80
2022/07/23 15:24:27;;;;;;;5.90;3.70;;;24.20;1.00;;;;;;10478181;28;20195;-81
2022/07/23 15:29:48;;;;;;;6.45;4.85;;;24.30;1.00;;;;;;10476885;28;20219;-83
2022/07/23 15:35:10;;;;;;;4.13;3.72;;;24.20;1.00;;;;;;10462228;28;20232;-81
2022/07/23 15:40:31;;;;;;;4.40;4.00;;;24.10;1.00;;;;;;10477105;28;20211;-81
2022/07/23 15:45:53;;;;;;;4.65;4.15;;;23.80;1.00;;;;;;10476377;28;20199;-81
2022/07/23 15:51:15;;;;;;;6.35;4.38;;;23.70;1.00;;;;;;10476947;28;20478;-83
2022/07/23 15:56:36;;;;;;;4.50;3.90;;;23.50;1.00;;;;;;10476383;28;20234;-80
2022/07/23 16:01:58;;;;;;;4.20;3.80;;;23.50;1.00;;;;;;10476456;28;20191;-80
2022/07/23 16:07:20;;;;;;;5.70;4.10;;;23.50;1.00;;;;;;10477689;28;20200;-81
2022/07/23 16:12:41;;;;;;;4.65;3.85;;;23.50;1.00;;;;;;10481408;28;20537;-82
2022/07/23 16:18:03;;;;;;;4.85;4.18;;;23.30;1.00;;;;;;10498496;28;20291;-80
2022/07/23 16:23:24;;;;;;;3.83;3.35;;;23.20;99.90;;;;;;10483932;28;20223;-80
2022/07/23 16:28:46;;;;;;;8.30;3.60;;;23.00;99.90;;;;;;10484781;28;20218;-81
2022/07/23 16:34:07;;;;;;;6.40;2.83;;;22.90;99.90;;;;;;10484115;28;20235;-83
2022/07/23 16:39:28;;;;;;;6.72;3.13;;;22.80;99.90;;;;;;10483523;28;20195;-80
2022/07/23 16:44:50;;;;;;;5.88;2.97;;;22.60;99.90;;;;;;10484104;28;20190;-82
2022/07/23 16:50:11;;;;;;;2.95;2.10;;;22.40;27.40;;;;;;10485486;28;20241;-81
2022/07/23 16:55:33;;;;;;;4.72;2.13;;;22.20;1.00;;;;;;10483568;28;20223;-80
2022/07/23 17:00:54;;;;;;;2.53;1.70;;;22.20;1.00;;;;;;10482559;28;20223;-82
2022/07/23 17:06:16;;;;;;;3.65;1.92;;;22.10;1.00;;;;;;10470534;28;20208;-83
2022/07/23 17:11:37;;;;;;;2.95;1.52;;;;;;;;;;10481757;28;20306;-80
2022/07/23 17:16:58;;;;;;;4.38;1.40;;;21.80;82.90;;;;;;10467951;28;20230;-80
2022/07/23 17:22:20;;;;;;;2.70;1.35;;;21.30;1.00;;;;;;10490356;28;20335;-83
2022/07/23 17:27:43;;;;;;;3.80;1.20;;;21.00;1.00;;;;;;10442859;28;20207;-83
2022/07/23 17:33:04;;;;;;;2.25;1.40;;;20.80;1.00;;;;;;10473678;28;20382;-83
2022/07/23 17:38:27;;;;;;;2.67;1.25;;;20.70;13.00;;;;;;10481329;28;20199;-82
2022/07/23 17:43:48;;;;;;;3.58;1.52;;;20.70;1.00;;;;;;10481279;28;20195;-83
2022/07/23 17:49:09;;;;;;;2.03;0.88;;;20.50;1.00;;;;;;10467384;28;20271;-82
2022/07/23 17:54:32;;;;;;;2.45;1.08;;;20.40;1.00;;;;;;10466799;28;20211;-83
2022/07/23 17:59:53;;;;;;;1.85;1.02;;;20.30;1.00;;;;;;10481716;28;20188;-83
2022/07/23 18:05:15;;;;;;;2.42;1.33;;;;;;;;;;10480045;28;20203;-82
2022/07/23 18:10:37;;;;;;;3.75;1.20;;;;;;;;;;10479802;28;20232;-82
2022/07/23 18:15:58;;;;;;;2.13;1.30;;;;;;;;;;10479703;28;20597;-79
2022/07/23 18:21:20;;;;;;;2.40;1.05;;;20.10;1.00;;;;;;10482058;28;20219;-79
2022/07/23 18:26:41;;;;;;;2.42;1.30;;;20.00;1.00;;;;;;10493103;28;20200;-80
2022/07/23 18:32:03;;;;;;;4.05;1.40;;;19.90;1.00;;;;;;10479113;28;20200;-81
2022/07/23 18:37:25;;;;;;;6.03;1.20;;;19.90;1.00;;;;;;10464227;28;20235;-81
2022/07/23 18:42:46;;;;;;;2.55;0.90;;;19.80;1.00;;;;;;10478798;28;20196;-82
2022/07/23 18:48:08;;;;;;;2.90;1.05;;;19.70;1.00;;;;;;10477961;28;20500;-83
2022/07/23 18:53:30;;;;;;;2.80;1.15;;;19.70;1.00;;;;;;10463909;28;20200;-79
2022/07/23 18:58:51;;;;;;;1.33;1.10;;;19.80;1.00;;;;;;10477718;28;20226;-79
2022/07/23 19:04:13;;;;;;;1.15;0.95;;;19.70;1.00;;;;;;10478059;28;20196;-80
2022/07/23 19:09:34;;;;;;;3.58;1.20;;;19.60;1.00;;;;;;10480028;28;20222;-83
2022/07/23 19:14:56;;;;;;;3.05;1.15;;;19.60;1.00;;;;;;10463828;28;20413;-82
2022/07/23 19:20:17;;;;;;;2.15;1.27;;;19.40;1.00;;;;;;10465087;28;20230;-79
2022/07/23 19:25:39;;;;;;;1.50;0.90;;;;;;;;;;10477326;28;20365;-79
2022/07/23 19:31:00;;;;;;;1.45;1.08;;;19.20;1.00;;;;;;10449431;28;20195;-82
2022/07/23 19:36:22;;;;;;;1.80;0.90;;;19.10;1.00;;;;;;10479429;28;20227;-79
2022/07/23 19:41:43;;;;;;;2.13;0.98;;;19.10;1.00;;;;;;10477102;28;20262;-81
2022/07/23 19:47:05;;;;;;;1.63;0.98;;;;;;;;;;10467559;28;20207;-80
2022/07/23 19:52:27;;;;;;;1.13;0.80;;;;;;;;;;10485284;28;20222;-78
2022/07/23 19:57:48;;;;;;;3.67;1.00;;;18.70;1.00;;;;;;10486212;28;20577;-82
2022/07/23 20:03:10;;;;;;;1.88;1.10;;;18.60;1.00;;;;;;10470784;28;20196;-82
2022/07/23 20:08:32;;;;;;;1.00;0.80;;;18.50;37.50;;;;;;10471067;28;20275;-83
2022/07/23 20:13:53;;;;;;;5.57;1.50;;;18.50;88.60;;;;;;10470066;28;20230;-83
2022/07/23 20:19:14;;;;;;;3.13;1.45;;;18.40;99.90;;;;;;10484003;28;20219;-80
2022/07/23 20:24:35;;;;;;;1.23;0.93;;;18.30;99.90;;;;;;10491663;28;20407;-83
2022/07/23 20:29:57;;;;;;;3.33;1.10;;;18.30;99.90;;;;;;10525496;28;20447;-83
2022/07/23 20:35:18;;;;;;;1.05;0.93;;;18.30;99.90;;;;;;10514161;28;20223;-80
2022/07/23 20:41:00;;;;;;;1.38;1.13;;;18.20;99.90;;;;;;10484878;28;20208;-83
2022/07/23 20:46:41;;;;;;;4.18;1.20;;;18.00;99.90;;;;;;10483469;28;20200;-84
2022/07/23 20:52:23;;;;;;;1.95;1.30;;;18.00;99.90;;;;;;10483940;28;20199;-83
2022/07/23 20:58:04;;;;;;;3.35;1.33;;;18.00;99.90;;;;;;10481674;28;20224;-83
2022/07/23 21:03:45;;;;;;;3.00;1.25;;;;;;;;;;10482862;28;20226;-84
2022/07/23 21:09:26;;;;;;;2.22;1.33;;;17.90;1.00;;;;;;10483599;28;20210;-84
2022/07/23 21:15:09;;;;;;;1.92;1.30;;;17.70;1.00;;;;;;10483048;28;20526;-84
2022/07/23 21:26:49;;;;;;;5.60;1.20;;;17.60;1.00;;;;;;10479703;28;20215;-83
2022/07/23 21:32:31;;;;;;;2.78;1.33;;;17.50;1.00;;;;;;10467571;28;20207;-84
2022/07/23 21:38:12;;;;;;;4.55;1.42;;;;;;;;;;10467619;28;20289;-83
2022/07/23 21:43:53;;;;;;;2.17;1.40;;;17.30;1.00;;;;;;10455669;28;20198;-83
2022/07/23 21:49:14;;;;;;;1.80;1.27;;;17.30;1.00;;;;;;10447726;28;20597;-84
2022/07/23 21:54:36;;;;;;;2.58;1.23;;;17.20;1.00;;;;;;10448458;28;20215;-84
2022/07/23 21:59:57;;;;;;;3.85;1.33;;;17.10;1.00;;;;;;10482880;28;20203;-82
2022/07/23 22:05:18;;;;;;;2.67;1.20;;;17.00;1.00;;;;;;10480557;28;20194;-84
2022/07/23 22:10:40;;;;;;;3.35;1.65;;;16.90;1.00;;;;;;10479430;28;20411;-84
2022/07/23 22:16:02;;;;;;;3.13;1.20;;;16.90;1.00;;;;;;10479693;28;20220;-83
2022/07/23 22:21:23;;;;;;;1.65;1.40;;;16.90;1.00;;;;;;10465397;28;20214;-83
2022/07/23 22:27:02;;;;;;;2.50;1.45;;;16.90;1.00;;;;;;10537493;28;20256;-83
2022/07/23 22:32:24;;;;;;;4.72;1.55;;;16.80;1.00;;;;;;10520749;28;20481;-82
2022/07/23 22:37:46;;;;;;;1.60;1.50;;;16.90;1.00;;;;;;10501082;28;20226;-84
2022/07/23 22:43:07;;;;;;;1.95;1.40;;;16.90;1.00;;;;;;10494955;28;20202;-83
2022/07/23 22:48:29;;;;;;;3.70;1.20;;;16.90;1.00;;;;;;10464880;28;20206;-82
2022/07/23 22:53:50;;;;;;;1.35;1.00;;;16.90;1.00;;;;;;10478679;28;20195;-84
2022/07/23 22:59:12;;;;;;;5.70;1.70;;;16.90;1.00;;;;;;10477892;28;20530;-83
2022/07/23 23:04:46;;;;;;;3.85;1.50;;;16.90;1.00;;;;;;10477804;28;20207;-81
2022/07/23 23:10:08;;;;;;;1.58;1.35;;;16.80;1.00;;;;;;10479928;28;20252;-81
2022/07/23 23:15:29;;;;;;;1.80;1.42;;;16.80;1.00;;;;;;10462965;28;20221;-80
2022/07/23 23:20:50;;;;;;;4.35;1.27;;;16.80;1.00;;;;;;10476903;28;20193;-84
2022/07/23 23:26:12;;;;;;;2.58;1.23;;;16.80;1.00;;;;;;10477408;28;20237;-83
2022/07/23 23:31:34;;;;;;;3.10;1.30;;;16.90;1.00;;;;;;10480099;28;20493;-82
2022/07/23 23:36:55;;;;;;;5.18;1.58;;;16.90;1.00;;;;;;10493810;28;20230;-83
2022/07/23 23:42:16;;;;;;;4.45;1.90;;;16.90;1.00;;;;;;10493079;28;20190;-84
2022/07/23 23:47:37;;;;;;;2.00;1.50;;;16.90;1.00;;;;;;10491299;28;20277;-82
2022/07/23 23:52:59;;;;;;;2.17;1.25;;;16.80;1.00;;;;;;10479464;28;20427;-85
2022/07/23 23:58:20;;;;;;;4.47;1.80;;;16.80;1.00;;;;;;10462779;28;20270;-81
